createdAt,value
2018-12-03T19:53:59.822Z,11.30
2018-12-03T19:56:30.273Z,11.10
2018-12-03T19:59:00.685Z,11.00
2018-12-03T20:01:30.696Z,10.90
2018-12-03T20:04:00.591Z,10.90
2018-12-03T20:06:30.472Z,10.80
2018-12-03T20:09:01.502Z,10.70
2018-12-03T20:11:34.601Z,10.70
2018-12-03T20:14:04.928Z,10.60
2018-12-03T20:16:34.781Z,10.50
2018-12-03T20:19:05.005Z,10.50
2018-12-03T20:21:35.024Z,10.40
2018-12-03T20:24:08.487Z,10.40
2018-12-03T20:26:48.132Z,10.50
2018-12-03T20:29:29.914Z,10.40
2018-12-03T20:33:10.063Z,10.40
2018-12-03T20:35:48.169Z,10.30
2018-12-03T20:38:21.280Z,10.20
2018-12-03T20:41:24.576Z,10.20
2018-12-03T20:43:57.436Z,10.10
2018-12-03T20:46:40.308Z,10.10
2018-12-03T20:50:03.694Z,10.10
2018-12-03T20:52:33.364Z,10.10
2018-12-03T20:55:10.959Z,10.10
2018-12-03T20:57:41.177Z,10.10
2018-12-03T21:00:11.301Z,10.00
2018-12-03T21:02:42.034Z,10.00
2018-12-03T21:05:12.069Z,10.00
2018-12-03T21:07:42.250Z,10.00
2018-12-03T21:10:12.385Z,10.00
2018-12-03T21:12:42.506Z,10.00
2018-12-03T21:15:12.779Z,9.90
2018-12-03T21:17:42.852Z,9.90
2018-12-03T21:20:19.611Z,9.90
2018-12-03T21:22:50.237Z,9.80
2018-12-03T21:25:20.279Z,9.80
2018-12-03T21:27:50.751Z,9.90
2018-12-03T21:30:21.159Z,9.90
2018-12-03T21:32:51.664Z,9.90
2018-12-03T21:35:21.720Z,10.00
2018-12-03T21:37:52.213Z,10.00
2018-12-03T21:40:22.623Z,9.90
2018-12-03T21:42:52.963Z,9.90
2018-12-03T21:45:23.113Z,9.90
2018-12-03T21:47:53.145Z,9.80
2018-12-03T21:50:23.397Z,9.80
2018-12-03T21:52:53.752Z,9.80
2018-12-03T21:55:24.054Z,9.80
2018-12-03T21:57:55.635Z,9.80
2018-12-03T22:00:26.060Z,9.80
2018-12-03T22:02:56.439Z,9.90
2018-12-03T22:05:26.781Z,9.80
2018-12-03T22:07:56.758Z,9.90
2018-12-03T22:10:27.225Z,9.80
2018-12-03T22:12:57.682Z,9.80
2018-12-03T22:15:27.823Z,9.90
2018-12-03T22:17:57.948Z,9.80
2018-12-03T22:20:27.765Z,9.80
2018-12-03T22:22:57.724Z,9.80
2018-12-03T22:25:28.810Z,9.80
2018-12-03T22:27:59.364Z,9.90
2018-12-03T22:30:30.273Z,9.90
2018-12-03T22:33:00.739Z,9.90
2018-12-03T22:35:31.090Z,9.90
2018-12-03T22:38:01.284Z,9.90
2018-12-03T22:40:31.641Z,10.00
2018-12-03T22:43:01.761Z,10.00
2018-12-03T22:45:31.977Z,10.00
2018-12-03T22:48:01.898Z,9.90
2018-12-03T22:50:31.857Z,9.90
2018-12-03T22:53:02.064Z,9.90
2018-12-03T22:55:32.020Z,9.90
2018-12-03T22:58:02.057Z,10.00
2018-12-03T23:00:36.858Z,10.00
2018-12-03T23:03:08.369Z,10.00
2018-12-03T23:05:38.767Z,10.10
2018-12-03T23:08:09.473Z,10.00
2018-12-03T23:23:01.637Z,10.20
2018-12-03T23:25:32.121Z,10.20
2018-12-03T23:42:40.834Z,10.20
2018-12-03T23:45:10.876Z,9.40
2018-12-03T23:47:41.014Z,9.50
2018-12-03T23:50:10.994Z,9.50
2018-12-03T23:52:40.868Z,9.60
2018-12-03T23:55:11.294Z,9.60
2018-12-03T23:57:41.135Z,9.70
